sensor_id;sensor_type;location;lat;lon;timestamp;temperature;humidity
57390;DHT22;43217;52.694;6.214;2024-03-08T00:02:03;3.00;99.90
57390;DHT22;43217;52.694;6.214;2024-03-08T00:04:29;3.00;99.90
57390;DHT22;43217;52.694;6.214;2024-03-08T00:06:55;3.00;99.90
57390;DHT22;43217;52.694;6.214;2024-03-08T00:09:20;3.00;99.90
57390;DHT22;43217;52.694;6.214;2024-03-08T00:11:47;3.00;99.90
57390;DHT22;43217;52.694;6.214;2024-03-08T00:14:14;3.00;99.90
57390;DHT22;43217;52.694;6.214;2024-03-08T00:16:40;3.00;99.90
57390;DHT22;43217;52.694;6.214;2024-03-08T00:19:09;3.00;99.90
57390;DHT22;43217;52.694;6.214;2024-03-08T00:21:35;3.00;99.90
57390;DHT22;43217;52.694;6.214;2024-03-08T00:24:01;3.00;99.90
57390;DHT22;43217;52.694;6.214;2024-03-08T00:26:26;3.00;99.90
57390;DHT22;43217;52.694;6.214;2024-03-08T00:28:52;3.00;99.90
57390;DHT22;43217;52.694;6.214;2024-03-08T00:31:19;3.00;99.90
57390;DHT22;43217;52.694;6.214;2024-03-08T00:33:45;2.90;99.90
57390;DHT22;43217;52.694;6.214;2024-03-08T00:36:11;2.90;99.90
57390;DHT22;43217;52.694;6.214;2024-03-08T00:38:37;2.90;99.90
57390;DHT22;43217;52.694;6.214;2024-03-08T00:41:02;2.90;99.90
57390;DHT22;43217;52.694;6.214;2024-03-08T00:43:28;2.90;99.90
57390;DHT22;43217;52.694;6.214;2024-03-08T00:45:55;2.80;99.90
57390;DHT22;43217;52.694;6.214;2024-03-08T00:48:21;2.80;99.90
57390;DHT22;43217;52.694;6.214;2024-03-08T00:50:47;2.80;99.90
57390;DHT22;43217;52.694;6.214;2024-03-08T00:53:13;2.80;99.90
57390;DHT22;43217;52.694;6.214;2024-03-08T00:55:39;2.80;99.90
57390;DHT22;43217;52.694;6.214;2024-03-08T00:58:05;2.70;99.90
57390;DHT22;43217;52.694;6.214;2024-03-08T01:00:30;2.70;99.90
57390;DHT22;43217;52.694;6.214;2024-03-08T01:02:56;2.70;99.90
57390;DHT22;43217;52.694;6.214;2024-03-08T01:05:22;2.70;99.90
57390;DHT22;43217;52.694;6.214;2024-03-08T01:07:50;2.70;99.90
57390;DHT22;43217;52.694;6.214;2024-03-08T01:10:16;2.70;99.90
57390;DHT22;43217;52.694;6.214;2024-03-08T01:12:42;2.60;99.90
57390;DHT22;43217;52.694;6.214;2024-03-08T01:15:09;2.60;99.90
57390;DHT22;43217;52.694;6.214;2024-03-08T01:17:36;2.60;99.90
57390;DHT22;43217;52.694;6.214;2024-03-08T01:20:02;2.60;99.90
57390;DHT22;43217;52.694;6.214;2024-03-08T01:22:28;2.60;99.90
57390;DHT22;43217;52.694;6.214;2024-03-08T01:24:56;2.60;99.90
57390;DHT22;43217;52.694;6.214;2024-03-08T01:27:22;2.50;99.90
57390;DHT22;43217;52.694;6.214;2024-03-08T01:29:48;2.50;99.90
57390;DHT22;43217;52.694;6.214;2024-03-08T01:32:16;2.50;99.90
57390;DHT22;43217;52.694;6.214;2024-03-08T01:34:42;2.50;99.90
57390;DHT22;43217;52.694;6.214;2024-03-08T01:37:10;2.50;99.90
57390;DHT22;43217;52.694;6.214;2024-03-08T01:39:35;2.50;99.90
57390;DHT22;43217;52.694;6.214;2024-03-08T01:42:01;2.40;99.90
57390;DHT22;43217;52.694;6.214;2024-03-08T01:44:26;2.40;99.90
57390;DHT22;43217;52.694;6.214;2024-03-08T01:46:53;2.40;99.90
57390;DHT22;43217;52.694;6.214;2024-03-08T01:49:20;2.40;99.90
57390;DHT22;43217;52.694;6.214;2024-03-08T01:51:48;2.30;99.90
57390;DHT22;43217;52.694;6.214;2024-03-08T01:54:15;2.30;99.90
57390;DHT22;43217;52.694;6.214;2024-03-08T01:56:42;2.30;99.90
57390;DHT22;43217;52.694;6.214;2024-03-08T01:59:08;2.30;99.90
57390;DHT22;43217;52.694;6.214;2024-03-08T02:01:34;2.30;99.90
57390;DHT22;43217;52.694;6.214;2024-03-08T02:04:00;2.30;99.90
57390;DHT22;43217;52.694;6.214;2024-03-08T02:06:25;2.30;99.90
57390;DHT22;43217;52.694;6.214;2024-03-08T02:08:51;2.20;99.90
57390;DHT22;43217;52.694;6.214;2024-03-08T02:11:17;2.30;99.90
57390;DHT22;43217;52.694;6.214;2024-03-08T02:13:44;2.30;99.90
57390;DHT22;43217;52.694;6.214;2024-03-08T02:16:10;2.20;99.90
57390;DHT22;43217;52.694;6.214;2024-03-08T02:18:36;2.20;99.90
57390;DHT22;43217;52.694;6.214;2024-03-08T02:21:03;2.30;99.90
57390;DHT22;43217;52.694;6.214;2024-03-08T02:23:29;2.30;99.90
57390;DHT22;43217;52.694;6.214;2024-03-08T02:25:56;2.30;99.90
57390;DHT22;43217;52.694;6.214;2024-03-08T02:28:23;2.30;99.90
57390;DHT22;43217;52.694;6.214;2024-03-08T02:30:49;2.30;99.90
57390;DHT22;43217;52.694;6.214;2024-03-08T02:33:22;2.30;99.90
57390;DHT22;43217;52.694;6.214;2024-03-08T02:35:48;2.30;99.90
57390;DHT22;43217;52.694;6.214;2024-03-08T02:38:23;2.30;99.90
57390;DHT22;43217;52.694;6.214;2024-03-08T02:40:50;2.30;99.90
57390;DHT22;43217;52.694;6.214;2024-03-08T02:43:17;2.30;99.90
57390;DHT22;43217;52.694;6.214;2024-03-08T02:45:43;2.30;99.90
57390;DHT22;43217;52.694;6.214;2024-03-08T02:48:09;2.30;99.90
57390;DHT22;43217;52.694;6.214;2024-03-08T02:50:36;2.30;99.90
57390;DHT22;43217;52.694;6.214;2024-03-08T02:53:02;2.40;99.90
57390;DHT22;43217;52.694;6.214;2024-03-08T02:55:28;2.30;99.90
57390;DHT22;43217;52.694;6.214;2024-03-08T02:57:53;2.30;99.90
57390;DHT22;43217;52.694;6.214;2024-03-08T03:00:22;2.30;99.90
57390;DHT22;43217;52.694;6.214;2024-03-08T03:02:49;2.30;99.90
57390;DHT22;43217;52.694;6.214;2024-03-08T03:05:19;2.30;99.90
57390;DHT22;43217;52.694;6.214;2024-03-08T03:07:45;2.30;99.90
57390;DHT22;43217;52.694;6.214;2024-03-08T03:10:11;2.30;99.90
57390;DHT22;43217;52.694;6.214;2024-03-08T03:12:42;2.20;99.90
57390;DHT22;43217;52.694;6.214;2024-03-08T03:15:08;2.20;99.90
57390;DHT22;43217;52.694;6.214;2024-03-08T03:17:34;2.20;99.90
57390;DHT22;43217;52.694;6.214;2024-03-08T03:20:00;2.20;99.90
57390;DHT22;43217;52.694;6.214;2024-03-08T03:22:34;2.20;99.90
57390;DHT22;43217;52.694;6.214;2024-03-08T03:25:00;2.20;99.90
57390;DHT22;43217;52.694;6.214;2024-03-08T03:27:28;2.20;99.90
57390;DHT22;43217;52.694;6.214;2024-03-08T03:29:56;2.10;99.90
57390;DHT22;43217;52.694;6.214;2024-03-08T03:32:23;2.10;99.90
57390;DHT22;43217;52.694;6.214;2024-03-08T03:34:49;2.10;99.90
57390;DHT22;43217;52.694;6.214;2024-03-08T03:37:21;2.20;99.90
57390;DHT22;43217;52.694;6.214;2024-03-08T03:39:49;2.10;99.90
57390;DHT22;43217;52.694;6.214;2024-03-08T03:42:18;2.20;99.90
57390;DHT22;43217;52.694;6.214;2024-03-08T03:44:47;2.10;99.90
57390;DHT22;43217;52.694;6.214;2024-03-08T03:47:14;2.10;99.90
57390;DHT22;43217;52.694;6.214;2024-03-08T03:49:41;2.10;99.90
57390;DHT22;43217;52.694;6.214;2024-03-08T03:52:06;2.10;99.90
57390;DHT22;43217;52.694;6.214;2024-03-08T03:54:32;2.10;99.90
57390;DHT22;43217;52.694;6.214;2024-03-08T03:56:59;2.10;99.90
57390;DHT22;43217;52.694;6.214;2024-03-08T03:59:26;2.10;99.90
57390;DHT22;43217;52.694;6.214;2024-03-08T04:01:53;2.00;99.90
57390;DHT22;43217;52.694;6.214;2024-03-08T04:04:20;2.00;99.90
57390;DHT22;43217;52.694;6.214;2024-03-08T04:06:45;2.00;99.90
57390;DHT22;43217;52.694;6.214;2024-03-08T04:09:11;2.00;99.90
57390;DHT22;43217;52.694;6.214;2024-03-08T04:11:38;2.00;99.90
57390;DHT22;43217;52.694;6.214;2024-03-08T04:14:04;2.00;99.90
57390;DHT22;43217;52.694;6.214;2024-03-08T04:16:30;2.00;99.90
57390;DHT22;43217;52.694;6.214;2024-03-08T04:18:57;2.00;99.90
57390;DHT22;43217;52.694;6.214;2024-03-08T04:21:23;1.90;99.90
57390;DHT22;43217;52.694;6.214;2024-03-08T04:23:48;2.00;99.90
57390;DHT22;43217;52.694;6.214;2024-03-08T04:26:14;1.90;99.90
57390;DHT22;43217;52.694;6.214;2024-03-08T04:28:39;1.90;99.90
57390;DHT22;43217;52.694;6.214;2024-03-08T04:31:05;1.90;99.90
57390;DHT22;43217;52.694;6.214;2024-03-08T04:33:32;1.80;99.90
57390;DHT22;43217;52.694;6.214;2024-03-08T04:35:58;1.80;99.90
57390;DHT22;43217;52.694;6.214;2024-03-08T04:38:23;1.90;99.90
57390;DHT22;43217;52.694;6.214;2024-03-08T04:40:50;1.80;99.90
57390;DHT22;43217;52.694;6.214;2024-03-08T04:43:16;1.80;99.90
57390;DHT22;43217;52.694;6.214;2024-03-08T04:45:44;1.80;99.90
57390;DHT22;43217;52.694;6.214;2024-03-08T04:48:09;1.80;99.90
57390;DHT22;43217;52.694;6.214;2024-03-08T04:50:35;1.80;99.90
57390;DHT22;43217;52.694;6.214;2024-03-08T04:53:01;1.70;99.90
57390;DHT22;43217;52.694;6.214;2024-03-08T04:55:26;1.70;99.90
57390;DHT22;43217;52.694;6.214;2024-03-08T04:57:52;1.70;99.90
57390;DHT22;43217;52.694;6.214;2024-03-08T05:00:18;1.70;99.90
57390;DHT22;43217;52.694;6.214;2024-03-08T05:02:44;1.70;99.90
57390;DHT22;43217;52.694;6.214;2024-03-08T05:05:10;1.70;99.90
57390;DHT22;43217;52.694;6.214;2024-03-08T05:07:39;1.60;99.90
57390;DHT22;43217;52.694;6.214;2024-03-08T05:10:06;1.60;99.90
57390;DHT22;43217;52.694;6.214;2024-03-08T05:12:35;1.60;99.90
57390;DHT22;43217;52.694;6.214;2024-03-08T05:15:01;1.60;99.90
57390;DHT22;43217;52.694;6.214;2024-03-08T05:17:26;1.60;99.90
57390;DHT22;43217;52.694;6.214;2024-03-08T05:19:53;1.50;99.90
57390;DHT22;43217;52.694;6.214;2024-03-08T05:22:19;1.60;99.90
57390;DHT22;43217;52.694;6.214;2024-03-08T05:24:47;1.50;99.90
57390;DHT22;43217;52.694;6.214;2024-03-08T05:27:13;1.50;99.90
57390;DHT22;43217;52.694;6.214;2024-03-08T05:29:38;1.50;99.90
57390;DHT22;43217;52.694;6.214;2024-03-08T05:32:04;1.50;99.90
57390;DHT22;43217;52.694;6.214;2024-03-08T05:34:30;1.50;99.90
57390;DHT22;43217;52.694;6.214;2024-03-08T05:36:56;1.50;99.90
57390;DHT22;43217;52.694;6.214;2024-03-08T05:39:23;1.40;99.90
57390;DHT22;43217;52.694;6.214;2024-03-08T05:41:48;1.50;99.90
57390;DHT22;43217;52.694;6.214;2024-03-08T05:44:14;1.50;99.90
57390;DHT22;43217;52.694;6.214;2024-03-08T05:46:42;1.40;99.90
57390;DHT22;43217;52.694;6.214;2024-03-08T05:49:08;1.40;99.90
57390;DHT22;43217;52.694;6.214;2024-03-08T05:51:36;1.40;99.90
57390;DHT22;43217;52.694;6.214;2024-03-08T05:54:06;1.40;99.90
57390;DHT22;43217;52.694;6.214;2024-03-08T05:56:34;1.40;99.90
57390;DHT22;43217;52.694;6.214;2024-03-08T05:59:01;1.40;99.90
57390;DHT22;43217;52.694;6.214;2024-03-08T06:01:27;1.40;99.90
57390;DHT22;43217;52.694;6.214;2024-03-08T06:03:54;1.40;99.90
57390;DHT22;43217;52.694;6.214;2024-03-08T06:06:23;1.40;99.90
57390;DHT22;43217;52.694;6.214;2024-03-08T06:08:50;1.40;99.90
57390;DHT22;43217;52.694;6.214;2024-03-08T06:11:16;1.40;99.90
57390;DHT22;43217;52.694;6.214;2024-03-08T06:13:46;1.40;99.90
57390;DHT22;43217;52.694;6.214;2024-03-08T06:16:12;1.40;99.90
57390;DHT22;43217;52.694;6.214;2024-03-08T06:18:38;1.40;99.90
57390;DHT22;43217;52.694;6.214;2024-03-08T06:21:05;1.40;99.90
57390;DHT22;43217;52.694;6.214;2024-03-08T06:23:32;1.40;99.90
57390;DHT22;43217;52.694;6.214;2024-03-08T06:25:57;1.40;99.90
57390;DHT22;43217;52.694;6.214;2024-03-08T06:28:23;1.40;99.90
57390;DHT22;43217;52.694;6.214;2024-03-08T06:30:49;1.40;99.90
57390;DHT22;43217;52.694;6.214;2024-03-08T06:33:17;1.40;99.90
57390;DHT22;43217;52.694;6.214;2024-03-08T06:35:43;1.40;99.90
57390;DHT22;43217;52.694;6.214;2024-03-08T06:38:08;1.40;99.90
57390;DHT22;43217;52.694;6.214;2024-03-08T06:40:34;1.50;99.90
57390;DHT22;43217;52.694;6.214;2024-03-08T06:43:00;1.50;99.90
57390;DHT22;43217;52.694;6.214;2024-03-08T06:45:26;1.50;99.90
57390;DHT22;43217;52.694;6.214;2024-03-08T06:47:52;1.50;99.90
57390;DHT22;43217;52.694;6.214;2024-03-08T06:50:17;1.60;99.90
57390;DHT22;43217;52.694;6.214;2024-03-08T06:52:43;1.60;99.90
57390;DHT22;43217;52.694;6.214;2024-03-08T06:55:10;1.60;99.90
57390;DHT22;43217;52.694;6.214;2024-03-08T06:57:41;1.70;99.90
57390;DHT22;43217;52.694;6.214;2024-03-08T07:00:07;1.70;99.90
57390;DHT22;43217;52.694;6.214;2024-03-08T07:02:37;1.70;99.90
57390;DHT22;43217;52.694;6.214;2024-03-08T07:05:05;1.70;99.90
57390;DHT22;43217;52.694;6.214;2024-03-08T07:07:31;1.80;99.90
57390;DHT22;43217;52.694;6.214;2024-03-08T07:09:59;1.80;99.90
57390;DHT22;43217;52.694;6.214;2024-03-08T07:12:24;1.80;99.90
57390;DHT22;43217;52.694;6.214;2024-03-08T07:14:51;1.80;99.90
57390;DHT22;43217;52.694;6.214;2024-03-08T07:17:16;1.90;99.90
57390;DHT22;43217;52.694;6.214;2024-03-08T07:19:42;1.90;99.90
57390;DHT22;43217;52.694;6.214;2024-03-08T07:22:08;1.90;99.90
57390;DHT22;43217;52.694;6.214;2024-03-08T07:24:35;1.90;99.90
57390;DHT22;43217;52.694;6.214;2024-03-08T07:27:04;2.00;99.90
57390;DHT22;43217;52.694;6.214;2024-03-08T07:29:31;2.00;99.90
57390;DHT22;43217;52.694;6.214;2024-03-08T07:31:56;2.00;99.90
57390;DHT22;43217;52.694;6.214;2024-03-08T07:34:48;2.10;99.90
57390;DHT22;43217;52.694;6.214;2024-03-08T07:37:16;2.10;99.90
57390;DHT22;43217;52.694;6.214;2024-03-08T07:39:42;2.20;99.90
57390;DHT22;43217;52.694;6.214;2024-03-08T07:42:09;2.20;99.90
57390;DHT22;43217;52.694;6.214;2024-03-08T07:44:35;2.20;99.90
57390;DHT22;43217;52.694;6.214;2024-03-08T07:47:01;2.20;99.90
57390;DHT22;43217;52.694;6.214;2024-03-08T07:49:26;2.30;99.90
57390;DHT22;43217;52.694;6.214;2024-03-08T07:51:52;2.30;99.90
57390;DHT22;43217;52.694;6.214;2024-03-08T07:54:18;2.30;99.90
57390;DHT22;43217;52.694;6.214;2024-03-08T07:56:43;2.40;99.90
57390;DHT22;43217;52.694;6.214;2024-03-08T07:59:09;2.40;99.90
57390;DHT22;43217;52.694;6.214;2024-03-08T08:01:37;2.50;99.90
57390;DHT22;43217;52.694;6.214;2024-03-08T08:04:03;2.50;99.90
57390;DHT22;43217;52.694;6.214;2024-03-08T08:06:29;2.60;99.90
57390;DHT22;43217;52.694;6.214;2024-03-08T08:08:57;2.60;99.90
57390;DHT22;43217;52.694;6.214;2024-03-08T08:11:25;2.60;99.90
57390;DHT22;43217;52.694;6.214;2024-03-08T08:13:51;2.70;99.90
57390;DHT22;43217;52.694;6.214;2024-03-08T08:16:16;2.80;99.90
57390;DHT22;43217;52.694;6.214;2024-03-08T08:18:42;2.80;99.90
57390;DHT22;43217;52.694;6.214;2024-03-08T08:21:07;2.90;99.90
57390;DHT22;43217;52.694;6.214;2024-03-08T08:23:33;2.90;99.90
57390;DHT22;43217;52.694;6.214;2024-03-08T08:25:59;2.90;99.90
57390;DHT22;43217;52.694;6.214;2024-03-08T08:28:25;3.00;99.90
57390;DHT22;43217;52.694;6.214;2024-03-08T08:30:50;3.00;99.90
57390;DHT22;43217;52.694;6.214;2024-03-08T08:33:16;3.10;99.90
57390;DHT22;43217;52.694;6.214;2024-03-08T08:35:42;3.10;99.90
57390;DHT22;43217;52.694;6.214;2024-03-08T08:38:08;3.20;99.90
57390;DHT22;43217;52.694;6.214;2024-03-08T08:40:34;3.20;99.90
57390;DHT22;43217;52.694;6.214;2024-03-08T08:43:04;3.30;99.90
57390;DHT22;43217;52.694;6.214;2024-03-08T08:45:33;3.30;99.90
57390;DHT22;43217;52.694;6.214;2024-03-08T08:47:59;3.40;99.90
57390;DHT22;43217;52.694;6.214;2024-03-08T08:50:25;3.50;99.90
57390;DHT22;43217;52.694;6.214;2024-03-08T08:52:52;3.50;99.90
57390;DHT22;43217;52.694;6.214;2024-03-08T08:55:21;3.60;99.90
57390;DHT22;43217;52.694;6.214;2024-03-08T08:57:50;3.70;99.90
57390;DHT22;43217;52.694;6.214;2024-03-08T09:00:18;3.70;99.90
57390;DHT22;43217;52.694;6.214;2024-03-08T09:02:45;3.80;99.90
57390;DHT22;43217;52.694;6.214;2024-03-08T09:05:11;3.90;99.90
57390;DHT22;43217;52.694;6.214;2024-03-08T09:07:43;4.00;99.90
57390;DHT22;43217;52.694;6.214;2024-03-08T09:10:10;4.10;99.90
57390;DHT22;43217;52.694;6.214;2024-03-08T09:12:38;4.10;99.90
57390;DHT22;43217;52.694;6.214;2024-03-08T09:15:05;4.10;99.90
57390;DHT22;43217;52.694;6.214;2024-03-08T09:17:31;4.10;99.90
57390;DHT22;43217;52.694;6.214;2024-03-08T09:19:58;4.10;99.90
57390;DHT22;43217;52.694;6.214;2024-03-08T09:22:24;4.20;99.90
57390;DHT22;43217;52.694;6.214;2024-03-08T09:24:53;4.20;99.90
57390;DHT22;43217;52.694;6.214;2024-03-08T09:27:19;4.30;99.90
57390;DHT22;43217;52.694;6.214;2024-03-08T09:29:45;4.30;99.90
57390;DHT22;43217;52.694;6.214;2024-03-08T09:32:10;4.40;99.90
57390;DHT22;43217;52.694;6.214;2024-03-08T09:34:37;4.40;99.90
57390;DHT22;43217;52.694;6.214;2024-03-08T09:37:03;4.40;99.90
57390;DHT22;43217;52.694;6.214;2024-03-08T09:39:30;4.50;99.90
57390;DHT22;43217;52.694;6.214;2024-03-08T09:41:55;4.50;99.90
57390;DHT22;43217;52.694;6.214;2024-03-08T09:44:21;4.50;99.90
57390;DHT22;43217;52.694;6.214;2024-03-08T09:46:47;4.60;99.90
57390;DHT22;43217;52.694;6.214;2024-03-08T09:49:13;4.70;99.90
57390;DHT22;43217;52.694;6.214;2024-03-08T09:51:39;4.70;99.90
57390;DHT22;43217;52.694;6.214;2024-03-08T09:54:07;4.70;99.90
57390;DHT22;43217;52.694;6.214;2024-03-08T09:56:35;4.80;99.90
57390;DHT22;43217;52.694;6.214;2024-03-08T09:59:01;4.80;99.90
57390;DHT22;43217;52.694;6.214;2024-03-08T10:02:05;4.80;99.90
57390;DHT22;43217;52.694;6.214;2024-03-08T10:04:31;4.90;99.90
57390;DHT22;43217;52.694;6.214;2024-03-08T10:07:01;4.90;99.90
57390;DHT22;43217;52.694;6.214;2024-03-08T10:09:27;4.90;99.90
57390;DHT22;43217;52.694;6.214;2024-03-08T10:11:56;4.90;99.90
57390;DHT22;43217;52.694;6.214;2024-03-08T10:14:24;5.00;99.90
57390;DHT22;43217;52.694;6.214;2024-03-08T10:16:52;5.10;99.90
57390;DHT22;43217;52.694;6.214;2024-03-08T10:19:18;5.10;99.90
57390;DHT22;43217;52.694;6.214;2024-03-08T10:21:50;5.10;99.90
57390;DHT22;43217;52.694;6.214;2024-03-08T10:24:18;5.10;99.90
57390;DHT22;43217;52.694;6.214;2024-03-08T10:26:46;5.10;99.90
57390;DHT22;43217;52.694;6.214;2024-03-08T10:29:13;5.20;99.90
57390;DHT22;43217;52.694;6.214;2024-03-08T10:31:43;5.20;99.90
57390;DHT22;43217;52.694;6.214;2024-03-08T10:34:10;5.30;99.90
57390;DHT22;43217;52.694;6.214;2024-03-08T10:36:36;5.40;99.90
57390;DHT22;43217;52.694;6.214;2024-03-08T10:39:22;5.40;99.90
57390;DHT22;43217;52.694;6.214;2024-03-08T10:41:56;5.50;99.90
57390;DHT22;43217;52.694;6.214;2024-03-08T10:44:31;5.50;99.90
57390;DHT22;43217;52.694;6.214;2024-03-08T10:47:02;5.60;99.90
57390;DHT22;43217;52.694;6.214;2024-03-08T10:49:51;5.60;99.90
57390;DHT22;43217;52.694;6.214;2024-03-08T10:52:19;5.70;99.90
57390;DHT22;43217;52.694;6.214;2024-03-08T10:54:47;5.80;99.90
57390;DHT22;43217;52.694;6.214;2024-03-08T10:57:17;5.80;99.90
57390;DHT22;43217;52.694;6.214;2024-03-08T10:59:43;5.80;99.90
57390;DHT22;43217;52.694;6.214;2024-03-08T11:02:12;5.90;99.90
57390;DHT22;43217;52.694;6.214;2024-03-08T11:04:37;5.90;99.90
57390;DHT22;43217;52.694;6.214;2024-03-08T11:07:04;6.00;99.90
57390;DHT22;43217;52.694;6.214;2024-03-08T11:09:36;6.10;99.90
57390;DHT22;43217;52.694;6.214;2024-03-08T11:12:22;6.10;99.90
57390;DHT22;43217;52.694;6.214;2024-03-08T11:14:53;6.10;99.90
57390;DHT22;43217;52.694;6.214;2024-03-08T11:17:26;6.20;99.90
57390;DHT22;43217;52.694;6.214;2024-03-08T11:19:55;6.30;99.90
57390;DHT22;43217;52.694;6.214;2024-03-08T11:22:29;6.30;99.90
57390;DHT22;43217;52.694;6.214;2024-03-08T11:25:04;6.40;99.90
57390;DHT22;43217;52.694;6.214;2024-03-08T11:27:35;6.50;99.90
57390;DHT22;43217;52.694;6.214;2024-03-08T11:30:07;6.60;99.90
57390;DHT22;43217;52.694;6.214;2024-03-08T11:32:37;6.70;99.90
57390;DHT22;43217;52.694;6.214;2024-03-08T11:35:06;6.70;99.90
57390;DHT22;43217;52.694;6.214;2024-03-08T11:37:34;6.80;99.90
57390;DHT22;43217;52.694;6.214;2024-03-08T11:40:01;6.80;99.90
57390;DHT22;43217;52.694;6.214;2024-03-08T11:42:30;6.80;99.90
57390;DHT22;43217;52.694;6.214;2024-03-08T11:44:58;6.90;99.90
57390;DHT22;43217;52.694;6.214;2024-03-08T11:47:24;6.90;99.90
57390;DHT22;43217;52.694;6.214;2024-03-08T11:49:51;7.00;99.90
57390;DHT22;43217;52.694;6.214;2024-03-08T11:52:19;7.00;99.90
57390;DHT22;43217;52.694;6.214;2024-03-08T11:54:52;7.10;99.90
57390;DHT22;43217;52.694;6.214;2024-03-08T11:57:23;7.20;99.90
57390;DHT22;43217;52.694;6.214;2024-03-08T11:59:52;7.20;99.90
57390;DHT22;43217;52.694;6.214;2024-03-08T12:02:18;7.30;99.90
57390;DHT22;43217;52.694;6.214;2024-03-08T12:04:45;7.40;99.90
57390;DHT22;43217;52.694;6.214;2024-03-08T12:07:13;7.40;99.90
57390;DHT22;43217;52.694;6.214;2024-03-08T12:09:42;7.50;99.90
57390;DHT22;43217;52.694;6.214;2024-03-08T12:12:12;7.50;99.90
57390;DHT22;43217;52.694;6.214;2024-03-08T12:14:38;7.50;99.90
57390;DHT22;43217;52.694;6.214;2024-03-08T12:17:08;7.60;99.90
57390;DHT22;43217;52.694;6.214;2024-03-08T12:19:35;7.60;99.90
57390;DHT22;43217;52.694;6.214;2024-03-08T12:22:09;7.70;99.90
57390;DHT22;43217;52.694;6.214;2024-03-08T12:24:37;7.70;99.90
57390;DHT22;43217;52.694;6.214;2024-03-08T12:27:18;7.80;99.90
57390;DHT22;43217;52.694;6.214;2024-03-08T12:29:44;7.80;99.90
57390;DHT22;43217;52.694;6.214;2024-03-08T12:32:10;7.80;99.90
57390;DHT22;43217;52.694;6.214;2024-03-08T12:34:37;7.80;99.90
57390;DHT22;43217;52.694;6.214;2024-03-08T12:37:02;7.80;99.90
57390;DHT22;43217;52.694;6.214;2024-03-08T12:39:30;7.90;99.90
57390;DHT22;43217;52.694;6.214;2024-03-08T12:41:56;7.90;99.90
57390;DHT22;43217;52.694;6.214;2024-03-08T12:44:22;7.90;99.90
57390;DHT22;43217;52.694;6.214;2024-03-08T12:46:48;7.90;99.90
57390;DHT22;43217;52.694;6.214;2024-03-08T12:49:15;8.00;99.90
57390;DHT22;43217;52.694;6.214;2024-03-08T12:51:44;7.90;99.90
57390;DHT22;43217;52.694;6.214;2024-03-08T12:54:09;8.00;99.90
57390;DHT22;43217;52.694;6.214;2024-03-08T12:56:36;8.00;99.90
57390;DHT22;43217;52.694;6.214;2024-03-08T12:59:06;8.10;99.90
57390;DHT22;43217;52.694;6.214;2024-03-08T13:01:33;8.10;99.90
57390;DHT22;43217;52.694;6.214;2024-03-08T13:04:00;8.10;99.90
57390;DHT22;43217;52.694;6.214;2024-03-08T13:06:28;8.20;99.90
57390;DHT22;43217;52.694;6.214;2024-03-08T13:08:54;8.20;99.90
57390;DHT22;43217;52.694;6.214;2024-03-08T13:11:21;8.20;99.90
57390;DHT22;43217;52.694;6.214;2024-03-08T13:13:47;8.20;99.90
57390;DHT22;43217;52.694;6.214;2024-03-08T13:16:13;8.20;99.90
57390;DHT22;43217;52.694;6.214;2024-03-08T13:18:43;8.20;99.90
57390;DHT22;43217;52.694;6.214;2024-03-08T13:21:09;8.30;99.90
57390;DHT22;43217;52.694;6.214;2024-03-08T13:23:36;8.30;99.90
57390;DHT22;43217;52.694;6.214;2024-03-08T13:26:08;8.20;99.90
57390;DHT22;43217;52.694;6.214;2024-03-08T13:28:34;8.30;99.90
57390;DHT22;43217;52.694;6.214;2024-03-08T13:31:04;8.30;99.90
57390;DHT22;43217;52.694;6.214;2024-03-08T13:33:33;8.30;99.90
57390;DHT22;43217;52.694;6.214;2024-03-08T13:36:02;8.30;99.90
57390;DHT22;43217;52.694;6.214;2024-03-08T13:38:28;8.40;99.90
57390;DHT22;43217;52.694;6.214;2024-03-08T13:40:54;8.40;99.90
57390;DHT22;43217;52.694;6.214;2024-03-08T13:43:20;8.50;99.90
57390;DHT22;43217;52.694;6.214;2024-03-08T13:45:46;8.50;99.90
57390;DHT22;43217;52.694;6.214;2024-03-08T13:48:11;8.50;99.90
57390;DHT22;43217;52.694;6.214;2024-03-08T13:50:38;8.50;99.90
57390;DHT22;43217;52.694;6.214;2024-03-08T13:53:05;8.60;99.90
57390;DHT22;43217;52.694;6.214;2024-03-08T13:55:30;8.60;99.90
57390;DHT22;43217;52.694;6.214;2024-03-08T13:57:57;8.60;99.90
57390;DHT22;43217;52.694;6.214;2024-03-08T14:00:25;8.60;99.90
57390;DHT22;43217;52.694;6.214;2024-03-08T14:02:53;8.60;99.90
57390;DHT22;43217;52.694;6.214;2024-03-08T14:05:19;8.70;99.90
57390;DHT22;43217;52.694;6.214;2024-03-08T14:07:45;8.70;99.90
57390;DHT22;43217;52.694;6.214;2024-03-08T14:10:14;8.70;99.90
57390;DHT22;43217;52.694;6.214;2024-03-08T14:12:40;8.70;99.90
57390;DHT22;43217;52.694;6.214;2024-03-08T14:15:08;8.70;99.90
57390;DHT22;43217;52.694;6.214;2024-03-08T14:17:34;8.60;99.90
57390;DHT22;43217;52.694;6.214;2024-03-08T14:19:59;8.60;99.90
57390;DHT22;43217;52.694;6.214;2024-03-08T14:22:25;8.60;99.90
57390;DHT22;43217;52.694;6.214;2024-03-08T14:24:50;8.70;99.90
57390;DHT22;43217;52.694;6.214;2024-03-08T14:27:17;8.60;99.90
57390;DHT22;43217;52.694;6.214;2024-03-08T14:29:44;8.60;99.90
57390;DHT22;43217;52.694;6.214;2024-03-08T14:32:10;8.70;99.90
57390;DHT22;43217;52.694;6.214;2024-03-08T14:34:36;8.60;99.90
57390;DHT22;43217;52.694;6.214;2024-03-08T14:37:02;8.60;99.90
57390;DHT22;43217;52.694;6.214;2024-03-08T14:39:31;8.60;99.90
57390;DHT22;43217;52.694;6.214;2024-03-08T14:41:59;8.70;99.90
57390;DHT22;43217;52.694;6.214;2024-03-08T14:44:25;8.70;99.90
57390;DHT22;43217;52.694;6.214;2024-03-08T14:46:52;8.70;99.90
57390;DHT22;43217;52.694;6.214;2024-03-08T14:49:18;8.70;99.90
57390;DHT22;43217;52.694;6.214;2024-03-08T14:51:44;8.70;99.90
57390;DHT22;43217;52.694;6.214;2024-03-08T14:54:10;8.70;99.90
57390;DHT22;43217;52.694;6.214;2024-03-08T14:56:37;8.70;99.90
57390;DHT22;43217;52.694;6.214;2024-03-08T14:59:02;8.70;99.90
57390;DHT22;43217;52.694;6.214;2024-03-08T15:01:30;8.70;99.90
57390;DHT22;43217;52.694;6.214;2024-03-08T15:03:58;8.70;99.90
57390;DHT22;43217;52.694;6.214;2024-03-08T15:06:29;8.70;99.90
57390;DHT22;43217;52.694;6.214;2024-03-08T15:08:56;8.70;99.90
57390;DHT22;43217;52.694;6.214;2024-03-08T15:11:24;8.70;99.90
57390;DHT22;43217;52.694;6.214;2024-03-08T15:13:51;8.70;99.90
57390;DHT22;43217;52.694;6.214;2024-03-08T15:16:18;8.70;99.90
57390;DHT22;43217;52.694;6.214;2024-03-08T15:18:46;8.70;99.90
57390;DHT22;43217;52.694;6.214;2024-03-08T15:21:13;8.70;99.90
57390;DHT22;43217;52.694;6.214;2024-03-08T15:23:44;8.70;99.90
57390;DHT22;43217;52.694;6.214;2024-03-08T15:26:15;8.70;99.90
57390;DHT22;43217;52.694;6.214;2024-03-08T15:28:44;8.60;99.90
57390;DHT22;43217;52.694;6.214;2024-03-08T15:31:12;8.60;99.90
57390;DHT22;43217;52.694;6.214;2024-03-08T15:33:39;8.60;99.90
57390;DHT22;43217;52.694;6.214;2024-03-08T15:36:11;8.60;99.90
57390;DHT22;43217;52.694;6.214;2024-03-08T15:38:39;8.50;99.90
57390;DHT22;43217;52.694;6.214;2024-03-08T15:41:05;8.50;99.90
57390;DHT22;43217;52.694;6.214;2024-03-08T15:43:39;8.50;99.90
57390;DHT22;43217;52.694;6.214;2024-03-08T15:46:09;8.50;99.90